Time;durP1;ratioP1;P1;durP2;ratioP2;P2;SDS_P1;SDS_P2;PMS_P1;PMS_P2;Temp;Humidity;BMP_temperature;BMP_pressure;BME280_temperature;BME280_humidity;BME280_pressure;Samples;Min_cycle;Max_cycle;Signal;HPM_P1;HPM_P2
2021/01/03 00:01:10;;;;;;;45.97;27.88;;;2.80;99.90;;;;;;5094239;28;20230;-41
2021/01/03 00:03:38;;;;;;;44.35;29.30;;;2.90;99.90;;;;;;5094050;28;20256;-41
2021/01/03 00:06:05;;;;;;;44.33;28.77;;;3.00;99.90;;;;;;5094232;28;20420;-41
2021/01/03 00:08:32;;;;;;;43.73;28.50;;;2.90;99.90;;;;;;5092850;28;20641;-42
2021/01/03 00:10:59;;;;;;;43.58;29.20;;;3.00;99.90;;;;;;5093862;28;20268;-42
2021/01/03 00:13:26;;;;;;;44.75;27.42;;;2.90;99.90;;;;;;5094145;28;20214;-41
2021/01/03 00:15:53;;;;;;;44.65;28.38;;;2.90;99.90;;;;;;5093969;28;20619;-41
2021/01/03 00:18:21;;;;;;;43.67;27.92;;;2.90;99.90;;;;;;5093769;28;20568;-42
2021/01/03 00:20:50;;;;;;;48.17;28.55;;;2.90;99.90;;;;;;5093875;28;20210;-43
2021/01/03 00:23:18;;;;;;;43.47;27.98;;;2.80;99.90;;;;;;5093600;28;20214;-41
2021/01/03 00:25:46;;;;;;;42.55;27.85;;;2.80;99.90;;;;;;5093988;28;20230;-41
2021/01/03 00:28:13;;;;;;;41.85;26.17;;;2.80;99.90;;;;;;5093791;28;20230;-41
2021/01/03 00:30:40;;;;;;;46.42;28.67;;;2.80;99.90;;;;;;5093479;28;20246;-42
2021/01/03 00:33:08;;;;;;;42.80;29.05;;;2.80;99.90;;;;;;5093688;28;20207;-42
2021/01/03 00:35:36;;;;;;;46.23;28.77;;;2.80;99.90;;;;;;5093466;28;20242;-42
2021/01/03 00:38:05;;;;;;;44.33;29.07;;;2.70;99.90;;;;;;5093386;28;20289;-42
2021/01/03 00:40:33;;;;;;;45.85;28.60;;;2.70;99.90;;;;;;5093397;28;20229;-43
2021/01/03 00:43:00;;;;;;;42.72;28.33;;;2.80;99.90;;;;;;5093316;28;20234;-42
2021/01/03 00:45:27;;;;;;;44.70;28.02;;;2.80;99.90;;;;;;5093303;28;20313;-42
2021/01/03 00:47:54;;;;;;;47.75;30.77;;;2.70;99.90;;;;;;5093330;28;20241;-42
2021/01/03 00:50:22;;;;;;;44.03;29.85;;;2.70;99.90;;;;;;5093263;28;20246;-42
2021/01/03 00:52:50;;;;;;;46.40;28.35;;;2.70;99.90;;;;;;5092978;28;20203;-42
2021/01/03 00:55:18;;;;;;;45.15;28.15;;;2.60;99.90;;;;;;5093319;28;20211;-42
2021/01/03 00:57:45;;;;;;;44.17;29.52;;;2.70;99.90;;;;;;5093119;28;20301;-42
2021/01/03 01:00:16;;;;;;;45.07;29.00;;;2.70;99.90;;;;;;5092994;28;20226;-42
2021/01/03 01:02:43;;;;;;;44.08;28.60;;;2.60;99.90;;;;;;5093003;28;20589;-42
2021/01/03 01:05:12;;;;;;;46.80;28.40;;;2.50;99.90;;;;;;5093058;28;20242;-41
2021/01/03 01:07:40;;;;;;;42.90;26.45;;;2.40;99.90;;;;;;5093118;28;20279;-42
2021/01/03 01:10:10;;;;;;;50.72;29.60;;;2.30;99.90;;;;;;5092848;28;20291;-41
2021/01/03 01:12:38;;;;;;;50.22;29.80;;;2.40;99.90;;;;;;5092933;28;20211;-41
2021/01/03 01:15:07;;;;;;;48.45;31.00;;;2.40;99.90;;;;;;5092862;28;20232;-42
2021/01/03 01:17:34;;;;;;;42.35;27.80;;;2.30;99.90;;;;;;5092784;28;20234;-44
2021/01/03 01:20:01;;;;;;;39.05;26.80;;;2.30;99.90;;;;;;5092241;28;20230;-41
2021/01/03 01:22:28;;;;;;;44.53;27.67;;;2.20;99.90;;;;;;5092685;28;20264;-41
2021/01/03 01:24:55;;;;;;;45.08;28.35;;;2.30;99.90;;;;;;5092568;28;20214;-40
2021/01/03 01:27:23;;;;;;;47.67;28.50;;;2.30;99.90;;;;;;5092494;28;20207;-40
2021/01/03 01:29:50;;;;;;;49.00;30.00;;;2.40;99.90;;;;;;5092523;28;20233;-40
2021/01/03 01:32:17;;;;;;;44.88;27.58;;;2.50;99.90;;;;;;5092807;28;20289;-40
2021/01/03 01:34:44;;;;;;;48.30;28.43;;;2.50;99.90;;;;;;5092706;28;20232;-40
2021/01/03 01:37:11;;;;;;;40.90;27.47;;;2.50;99.90;;;;;;5092544;28;20283;-40
2021/01/03 01:39:38;;;;;;;50.65;30.05;;;2.50;99.90;;;;;;5092237;28;20674;-41
2021/01/03 01:42:05;;;;;;;44.00;28.33;;;2.50;99.90;;;;;;5092380;28;20207;-41
2021/01/03 01:44:33;;;;;;;48.90;31.33;;;2.50;99.90;;;;;;5092207;28;20256;-41
2021/01/03 01:47:05;;;;;;;51.50;31.88;;;2.40;99.90;;;;;;5092436;28;20287;-41
2021/01/03 01:49:36;;;;;;;46.00;29.90;;;2.40;99.90;;;;;;5092521;28;20635;-41
2021/01/03 01:52:04;;;;;;;46.60;30.05;;;2.30;99.90;;;;;;5092193;28;20653;-41
2021/01/03 01:54:36;;;;;;;47.88;29.13;;;2.30;99.90;;;;;;5092276;28;20247;-40
2021/01/03 01:57:10;;;;;;;45.47;28.83;;;2.10;99.90;;;;;;5092130;28;20583;-41
2021/01/03 01:59:44;;;;;;;49.08;28.90;;;2.00;99.90;;;;;;5092124;28;20235;-41
2021/01/03 02:02:19;;;;;;;44.45;29.13;;;2.00;99.90;;;;;;5092015;28;20330;-40
2021/01/03 02:04:55;;;;;;;48.97;28.98;;;2.00;99.90;;;;;;5092038;28;20230;-41
2021/01/03 02:07:29;;;;;;;41.95;28.33;;;2.00;99.90;;;;;;5091873;28;20297;-40
2021/01/03 02:10:08;;;;;;;44.30;29.30;;;2.00;99.90;;;;;;5091981;28;20286;-41
2021/01/03 02:12:39;;;;;;;40.38;26.83;;;1.90;99.90;;;;;;5091938;28;20238;-42
2021/01/03 02:15:12;;;;;;;44.60;27.23;;;2.00;99.90;;;;;;5091995;28;20211;-46
2021/01/03 02:17:39;;;;;;;43.28;28.92;;;2.10;99.90;;;;;;5092057;28;20207;-43
2021/01/03 02:20:09;;;;;;;44.28;29.50;;;2.20;99.90;;;;;;5091922;28;20697;-45
2021/01/03 02:22:40;;;;;;;42.50;28.75;;;2.20;99.90;;;;;;5092105;28;20217;-45
2021/01/03 02:25:12;;;;;;;46.67;28.83;;;2.20;99.90;;;;;;5092158;28;20271;-46
2021/01/03 02:27:47;;;;;;;44.33;28.92;;;2.20;99.90;;;;;;5092037;28;20241;-41
2021/01/03 02:30:17;;;;;;;45.23;29.50;;;2.10;99.90;;;;;;5091943;28;20234;-43
2021/01/03 02:32:49;;;;;;;43.28;27.55;;;2.10;99.90;;;;;;5095653;28;20302;-44
2021/01/03 02:35:19;;;;;;;41.33;28.08;;;2.10;99.90;;;;;;5096146;28;20307;-46
2021/01/03 02:37:49;;;;;;;44.17;27.02;;;2.00;99.90;;;;;;5095996;28;20305;-44
2021/01/03 02:40:21;;;;;;;43.75;26.90;;;2.00;99.90;;;;;;5095763;28;20318;-46
2021/01/03 02:42:48;;;;;;;47.40;29.98;;;2.00;99.90;;;;;;5095820;28;20241;-44
2021/01/03 02:45:18;;;;;;;41.35;27.98;;;1.90;99.90;;;;;;5096226;28;20246;-45
2021/01/03 02:47:45;;;;;;;42.13;27.57;;;1.90;99.90;;;;;;5095784;28;20290;-42
2021/01/03 02:50:16;;;;;;;43.15;26.98;;;1.90;99.90;;;;;;5095780;28;20234;-44
2021/01/03 02:52:45;;;;;;;38.83;24.90;;;1.90;99.90;;;;;;5095639;28;20207;-46
2021/01/03 02:55:14;;;;;;;39.80;26.37;;;1.90;99.90;;;;;;5095572;28;20252;-44
2021/01/03 02:57:42;;;;;;;38.87;25.33;;;1.90;99.90;;;;;;5095409;28;20241;-44
2021/01/03 03:00:14;;;;;;;41.03;26.20;;;1.90;99.90;;;;;;5095500;28;20262;-45
2021/01/03 03:02:41;;;;;;;39.58;25.48;;;1.90;99.90;;;;;;5095334;28;20614;-42
2021/01/03 03:05:10;;;;;;;40.70;24.98;;;1.90;99.90;;;;;;5095350;28;20623;-43
2021/01/03 03:07:37;;;;;;;36.20;23.05;;;1.90;99.90;;;;;;5095244;28;20302;-43
2021/01/03 03:10:05;;;;;;;36.03;23.90;;;1.90;99.90;;;;;;5095029;28;20203;-42
2021/01/03 03:12:32;;;;;;;35.30;22.83;;;1.90;99.90;;;;;;5095305;28;20294;-41
2021/01/03 03:15:00;;;;;;;35.72;23.20;;;1.90;99.90;;;;;;5095297;28;20202;-42
2021/01/03 03:17:27;;;;;;;35.28;22.70;;;1.90;99.90;;;;;;5095441;28;20301;-41
2021/01/03 03:19:54;;;;;;;34.47;21.40;;;1.90;99.90;;;;;;5094992;28;20254;-41
2021/01/03 03:22:21;;;;;;;37.25;23.77;;;1.90;99.90;;;;;;5094953;28;20333;-41
2021/01/03 03:24:48;;;;;;;33.03;21.75;;;1.90;99.90;;;;;;5094892;28;20202;-41
2021/01/03 03:27:15;;;;;;;33.90;22.43;;;1.90;99.90;;;;;;5095114;28;20237;-40
2021/01/03 03:29:42;;;;;;;35.53;22.00;;;1.80;99.90;;;;;;5094858;28;20369;-41
2021/01/03 03:32:10;;;;;;;40.17;22.77;;;1.80;99.90;;;;;;5094875;28;20245;-42
2021/01/03 03:34:37;;;;;;;36.40;24.23;;;1.70;99.90;;;;;;5094898;28;20285;-41
2021/01/03 03:37:04;;;;;;;34.75;22.05;;;1.70;99.90;;;;;;5094780;28;20203;-43
2021/01/03 03:39:31;;;;;;;37.60;23.38;;;1.70;99.90;;;;;;5094830;28;20265;-45
2021/01/03 03:42:00;;;;;;;33.30;22.08;;;1.70;99.90;;;;;;5094613;28;20253;-43
2021/01/03 03:44:28;;;;;;;37.28;24.38;;;1.70;99.90;;;;;;5094583;28;20517;-43
2021/01/03 03:46:57;;;;;;;34.67;21.73;;;1.70;99.90;;;;;;5094497;28;20272;-48
2021/01/03 03:49:25;;;;;;;34.50;23.23;;;1.80;99.90;;;;;;5094416;28;20202;-45
2021/01/03 03:51:53;;;;;;;32.17;21.58;;;1.80;99.90;;;;;;5094695;28;20202;-44
2021/01/03 03:54:21;;;;;;;29.95;19.80;;;1.90;99.90;;;;;;5094601;28;20289;-44
2021/01/03 03:56:52;;;;;;;33.23;21.93;;;1.90;99.90;;;;;;5094361;28;20246;-45
2021/01/03 03:59:19;;;;;;;33.83;22.10;;;1.90;99.90;;;;;;5094174;28;20312;-42
2021/01/03 04:01:46;;;;;;;34.50;22.30;;;1.90;99.90;;;;;;5094345;28;20207;-43
2021/01/03 04:04:13;;;;;;;32.30;20.37;;;1.90;99.90;;;;;;5094145;28;20249;-42
2021/01/03 04:06:41;;;;;;;35.70;22.40;;;1.90;99.90;;;;;;5094318;28;20234;-42
2021/01/03 04:09:09;;;;;;;30.23;20.67;;;2.00;99.90;;;;;;5094026;28;20680;-43
2021/01/03 04:11:39;;;;;;;31.13;20.67;;;2.10;99.90;;;;;;5093800;28;20321;-43
2021/01/03 04:14:06;;;;;;;30.10;21.30;;;2.10;99.90;;;;;;5093945;28;20249;-43
2021/01/03 04:16:33;;;;;;;28.92;19.98;;;2.10;99.90;;;;;;5093842;28;20661;-45
2021/01/03 04:19:00;;;;;;;29.35;20.75;;;2.10;99.90;;;;;;5093992;28;20260;-45
2021/01/03 04:21:27;;;;;;;30.58;20.15;;;2.20;99.90;;;;;;5093925;28;20207;-44
2021/01/03 04:23:56;;;;;;;31.50;19.80;;;2.20;99.90;;;;;;5093960;28;20272;-43
2021/01/03 04:26:42;;;;;;;35.05;22.02;;;2.30;99.90;;;;;;5093757;28;20586;-42
2021/01/03 04:29:09;;;;;;;30.03;21.43;;;2.30;99.90;;;;;;5093581;28;20232;-42
2021/01/03 04:31:36;;;;;;;33.35;21.27;;;2.40;99.90;;;;;;5093929;28;20576;-42
2021/01/03 04:34:04;;;;;;;31.03;21.40;;;2.40;99.90;;;;;;5093731;28;20203;-41
2021/01/03 04:36:31;;;;;;;31.58;21.52;;;2.40;99.90;;;;;;5093431;28;20649;-42
2021/01/03 04:38:59;;;;;;;31.65;21.38;;;2.40;99.90;;;;;;5093495;28;20233;-42
2021/01/03 04:41:32;;;;;;;31.90;21.70;;;2.40;99.90;;;;;;5093371;28;20230;-42
2021/01/03 04:44:02;;;;;;;29.13;21.90;;;2.40;99.90;;;;;;5093467;28;20257;-41
2021/01/03 04:46:35;;;;;;;35.63;21.85;;;2.30;99.90;;;;;;5093285;28;20203;-42
2021/01/03 04:49:08;;;;;;;34.63;21.65;;;2.40;99.90;;;;;;5093269;28;20264;-42
2021/01/03 04:51:45;;;;;;;36.90;22.63;;;2.40;99.90;;;;;;5093489;28;20305;-42
2021/01/03 04:54:19;;;;;;;33.45;22.58;;;2.30;99.90;;;;;;5092679;28;20215;-42
2021/01/03 04:56:51;;;;;;;35.77;22.33;;;2.30;99.90;;;;;;5093139;28;20207;-43
2021/01/03 04:59:28;;;;;;;34.67;24.00;;;2.30;99.90;;;;;;5092863;28;20329;-48
2021/01/03 05:02:40;;;;;;;33.93;22.67;;;2.30;99.90;;;;;;5093227;28;20228;-48
2021/01/03 05:05:36;;;;;;;31.23;21.90;;;2.20;99.90;;;;;;5059374;28;20641;-44
2021/01/03 05:08:26;;;;;;;30.80;21.75;;;2.20;99.90;;;;;;5093057;28;20237;-43
2021/01/03 05:10:54;;;;;;;30.67;21.87;;;2.20;99.90;;;;;;5092762;28;20614;-44
2021/01/03 05:13:32;;;;;;;33.65;22.38;;;2.10;99.90;;;;;;5092926;28;20246;-45
2021/01/03 05:15:59;;;;;;;34.45;23.58;;;2.10;99.90;;;;;;5092667;28;20554;-43
2021/01/03 05:18:26;;;;;;;28.70;21.75;;;2.10;99.90;;;;;;5092639;28;20297;-44
2021/01/03 05:20:55;;;;;;;31.13;20.08;;;2.10;99.90;;;;;;5092455;28;20330;-43
2021/01/03 05:23:23;;;;;;;29.50;21.08;;;2.10;99.90;;;;;;5092398;28;20687;-44
2021/01/03 05:25:52;;;;;;;32.28;20.58;;;2.20;99.90;;;;;;5092642;28;20299;-42
2021/01/03 05:28:23;;;;;;;28.70;20.80;;;2.20;99.90;;;;;;5092541;28;20202;-41
2021/01/03 05:30:51;;;;;;;33.05;21.38;;;2.20;99.90;;;;;;5092207;28;20751;-41
2021/01/03 05:33:25;;;;;;;34.15;22.52;;;2.20;99.90;;;;;;5092189;28;20618;-41
2021/01/03 05:35:53;;;;;;;31.93;21.23;;;2.20;99.90;;;;;;5092198;28;20297;-41
2021/01/03 05:38:36;;;;;;;33.17;22.02;;;2.20;99.90;;;;;;5092512;28;20289;-42
2021/01/03 05:41:15;;;;;;;33.63;21.83;;;2.10;99.90;;;;;;5092229;28;20578;-41
2021/01/03 05:43:48;;;;;;;32.28;21.40;;;2.00;99.90;;;;;;5092477;28;20253;-41
2021/01/03 05:46:23;;;;;;;32.35;20.30;;;2.00;99.90;;;;;;5092072;28;20264;-41
2021/01/03 05:49:00;;;;;;;29.88;21.80;;;2.00;99.90;;;;;;5092273;28;20230;-41
2021/01/03 05:51:38;;;;;;;35.00;22.60;;;2.00;99.90;;;;;;5092239;28;20648;-41
2021/01/03 05:54:09;;;;;;;33.90;21.07;;;2.00;99.90;;;;;;5092248;28;20221;-41
2021/01/03 05:56:41;;;;;;;29.88;20.25;;;2.00;99.90;;;;;;5091981;28;20213;-41
2021/01/03 05:59:14;;;;;;;36.15;21.77;;;2.00;99.90;;;;;;5092031;28;20230;-41
2021/01/03 06:01:42;;;;;;;32.97;21.50;;;2.00;99.90;;;;;;5092323;28;20237;-42
2021/01/03 06:04:11;;;;;;;30.43;21.73;;;2.00;99.90;;;;;;5092230;28;20605;-42
2021/01/03 06:06:59;;;;;;;30.48;21.17;;;2.10;99.90;;;;;;5093683;28;20206;-42
2021/01/03 06:09:34;;;;;;;34.83;22.10;;;2.10;99.90;;;;;;5096368;28;20782;-41
2021/01/03 06:12:04;;;;;;;34.47;23.13;;;2.10;99.90;;;;;;5096175;28;20230;-41
2021/01/03 06:14:32;;;;;;;35.28;22.45;;;2.10;99.90;;;;;;5096214;28;20293;-39
2021/01/03 06:17:06;;;;;;;34.47;23.13;;;2.10;99.90;;;;;;5096181;28;20249;-39
2021/01/03 06:19:42;;;;;;;31.60;22.48;;;2.10;99.90;;;;;;5095973;28;20305;-40
2021/01/03 06:22:30;;;;;;;34.88;22.83;;;2.10;99.90;;;;;;5096074;28;20210;-40
2021/01/03 06:24:59;;;;;;;36.88;23.63;;;2.10;99.90;;;;;;5095826;28;20610;-41
2021/01/03 06:27:30;;;;;;;34.97;22.80;;;2.10;99.90;;;;;;5095788;28;20211;-40
2021/01/03 06:30:04;;;;;;;37.60;23.65;;;2.10;99.90;;;;;;5095751;28;20293;-41
2021/01/03 06:32:57;;;;;;;37.90;22.43;;;2.20;99.90;;;;;;5095950;28;20230;-44
2021/01/03 06:35:29;;;;;;;35.27;22.47;;;2.20;99.90;;;;;;5062160;28;20206;-44
2021/01/03 06:38:04;;;;;;;35.72;23.30;;;2.10;99.90;;;;;;5095542;28;20268;-45
2021/01/03 06:40:36;;;;;;;38.67;23.47;;;2.10;99.90;;;;;;5095344;28;20291;-41
2021/01/03 06:43:45;;;;;;;34.40;22.80;;;2.10;99.90;;;;;;5095499;28;20742;-50
2021/01/03 06:46:57;;;;;;;35.87;23.60;;;2.10;99.90;;;;;;5095194;28;20211;-49
2021/01/03 06:49:45;;;;;;;36.40;22.07;;;2.10;99.90;;;;;;5095537;28;20205;-49
2021/01/03 06:52:43;;;;;;;36.83;23.25;;;2.10;99.90;;;;;;5095556;28;20233;-42
2021/01/03 06:55:31;;;;;;;34.05;23.55;;;2.00;99.90;;;;;;5095529;28;20264;-40
2021/01/03 06:58:21;;;;;;;35.55;23.17;;;2.00;99.90;;;;;;5095368;28;20211;-40
2021/01/03 07:00:50;;;;;;;36.70;21.90;;;2.00;99.90;;;;;;5095422;28;20516;-40
2021/01/03 07:03:21;;;;;;;37.70;25.10;;;2.00;99.90;;;;;;5095229;28;20363;-42
2021/01/03 07:05:57;;;;;;;38.40;24.53;;;2.00;99.90;;;;;;5095498;28;20557;-41
2021/01/03 07:08:27;;;;;;;35.03;21.90;;;2.00;99.90;;;;;;5095363;28;20257;-42
2021/01/03 07:10:54;;;;;;;39.42;24.98;;;2.00;99.90;;;;;;5095060;28;20321;-43
2021/01/03 07:13:42;;;;;;;40.05;24.42;;;2.00;99.90;;;;;;5095113;28;20211;-42
2021/01/03 07:16:31;;;;;;;36.25;23.77;;;2.00;99.90;;;;;;5095340;28;20260;-42
2021/01/03 07:19:05;;;;;;;36.15;25.05;;;2.00;99.90;;;;;;5094684;28;20708;-41
2021/01/03 07:21:37;;;;;;;34.17;22.30;;;2.00;99.90;;;;;;5094979;28;20290;-41
2021/01/03 07:24:33;;;;;;;34.90;22.63;;;2.00;99.90;;;;;;5094902;28;20206;-46
2021/01/03 07:27:25;;;;;;;34.78;21.15;;;2.00;99.90;;;;;;5094928;28;20683;-47
2021/01/03 07:30:15;;;;;;;36.65;23.75;;;2.00;99.90;;;;;;5091787;28;20211;-41
2021/01/03 07:32:47;;;;;;;33.43;22.47;;;1.90;99.90;;;;;;5094925;28;20209;-41
2021/01/03 07:35:34;;;;;;;33.57;22.80;;;1.90;99.90;;;;;;5094705;28;20199;-41
2021/01/03 07:38:26;;;;;;;31.48;21.15;;;2.00;99.90;;;;;;5094652;28;20621;-42
2021/01/03 07:41:06;;;;;;;29.83;20.73;;;2.00;99.90;;;;;;5094538;28;20250;-41
2021/01/03 07:43:53;;;;;;;30.37;21.23;;;2.00;99.90;;;;;;5094806;28;20293;-41
2021/01/03 07:46:48;;;;;;;33.83;22.43;;;2.10;99.90;;;;;;5094501;28;20289;-44
2021/01/03 07:49:33;;;;;;;34.03;21.80;;;2.10;99.90;;;;;;5094157;28;20309;-41
2021/01/03 07:52:10;;;;;;;26.00;19.23;;;2.20;99.90;;;;;;5094597;28;20211;-41
2021/01/03 07:54:37;;;;;;;27.67;19.45;;;2.20;99.90;;;;;;5094298;28;20686;-41
2021/01/03 07:57:11;;;;;;;31.60;22.17;;;2.30;99.90;;;;;;5094268;28;20612;-41
2021/01/03 07:59:38;;;;;;;26.03;19.00;;;2.30;99.90;;;;;;5094087;28;20713;-41
2021/01/03 08:02:07;;;;;;;27.10;19.45;;;2.30;99.90;;;;;;5094001;28;20203;-40
2021/01/03 08:04:34;;;;;;;27.57;18.13;;;2.20;99.90;;;;;;5093949;28;20696;-40
2021/01/03 08:07:06;;;;;;;25.95;18.20;;;2.20;99.90;;;;;;5094067;28;20210;-40
2021/01/03 08:09:34;;;;;;;29.77;19.20;;;2.10;99.90;;;;;;5094083;28;20287;-45
2021/01/03 08:12:10;;;;;;;26.63;18.35;;;2.10;99.90;;;;;;5093789;28;20299;-42
2021/01/03 08:14:40;;;;;;;25.77;18.27;;;2.10;99.90;;;;;;5094004;28;20446;-44
2021/01/03 08:17:12;;;;;;;26.52;17.80;;;2.10;99.90;;;;;;5093863;28;20569;-42
2021/01/03 08:19:40;;;;;;;25.08;17.90;;;2.00;99.90;;;;;;5093796;28;20266;-41
2021/01/03 08:22:08;;;;;;;29.27;18.97;;;2.00;99.90;;;;;;5093935;28;20217;-42
2021/01/03 08:24:35;;;;;;;26.55;18.73;;;2.10;99.90;;;;;;5093633;28;20301;-42
2021/01/03 08:27:13;;;;;;;27.87;19.23;;;2.10;99.90;;;;;;5093592;28;20206;-42
2021/01/03 08:29:44;;;;;;;36.33;24.93;;;2.10;99.90;;;;;;5092945;28;20513;-43
2021/01/03 08:32:16;;;;;;;60.08;40.92;;;2.20;99.90;;;;;;5093719;28;20308;-40
2021/01/03 08:34:43;;;;;;;34.30;21.75;;;2.20;99.90;;;;;;5093634;28;20236;-40
2021/01/03 08:37:17;;;;;;;43.00;29.10;;;2.20;99.90;;;;;;5093738;28;20229;-41
2021/01/03 08:39:45;;;;;;;45.58;32.80;;;2.20;99.90;;;;;;5093587;28;20313;-40
2021/01/03 08:42:18;;;;;;;25.10;21.15;;;2.20;99.90;;;;;;5093802;28;20230;-40
2021/01/03 08:44:50;;;;;;;31.07;20.60;;;2.30;99.90;;;;;;5093473;28;20238;-41
2021/01/03 08:47:21;;;;;;;32.90;24.27;;;2.30;99.90;;;;;;5093404;28;20294;-40
2021/01/03 08:50:00;;;;;;;31.10;20.17;;;2.40;99.90;;;;;;5093573;28;20613;-47
2021/01/03 08:52:29;;;;;;;29.20;20.10;;;2.40;99.90;;;;;;5093188;28;20207;-48
2021/01/03 08:55:08;;;;;;;36.95;23.70;;;2.40;99.90;;;;;;5093308;28;20301;-43
2021/01/03 08:57:35;;;;;;;34.60;23.77;;;2.50;99.90;;;;;;5093225;28;20230;-44
2021/01/03 09:00:04;;;;;;;32.78;21.35;;;2.50;99.90;;;;;;5093208;28;20223;-44
2021/01/03 09:02:32;;;;;;;36.33;23.10;;;2.60;99.90;;;;;;5093022;28;20240;-43
2021/01/03 09:05:01;;;;;;;30.27;19.20;;;2.60;99.90;;;;;;5092922;28;20685;-45
2021/01/03 09:07:34;;;;;;;25.83;17.60;;;2.60;99.90;;;;;;5092818;28;20300;-44
2021/01/03 09:10:03;;;;;;;25.33;18.13;;;2.70;99.90;;;;;;5092372;28;20263;-41
2021/01/03 09:12:37;;;;;;;28.20;18.17;;;2.70;99.90;;;;;;5092467;28;20238;-41
2021/01/03 09:15:11;;;;;;;25.40;17.60;;;2.60;99.90;;;;;;5092426;28;20207;-41
2021/01/03 09:17:40;;;;;;;24.15;17.85;;;2.70;99.90;;;;;;5092821;28;20218;-41
2021/01/03 09:20:18;;;;;;;25.83;18.73;;;2.70;99.90;;;;;;5092529;28;20673;-41
2021/01/03 09:22:51;;;;;;;23.92;17.25;;;2.70;99.90;;;;;;5092686;28;20210;-41
2021/01/03 09:25:23;;;;;;;27.92;19.00;;;2.80;99.90;;;;;;5092807;28;20202;-41
2021/01/03 09:27:54;;;;;;;28.30;19.25;;;2.80;99.90;;;;;;5092524;28;20297;-44
2021/01/03 09:30:26;;;;;;;24.93;17.30;;;2.90;99.90;;;;;;5092522;28;20221;-40
2021/01/03 09:33:04;;;;;;;26.92;17.08;;;2.90;99.90;;;;;;5092435;28;20206;-40
2021/01/03 09:35:45;;;;;;;21.98;17.63;;;3.00;99.90;;;;;;5092596;28;20191;-41
2021/01/03 09:38:36;;;;;;;30.13;21.25;;;3.00;99.90;;;;;;5092531;28;20238;-41
2021/01/03 09:41:14;;;;;;;27.42;18.25;;;3.00;99.90;;;;;;5092113;28;20313;-40
2021/01/03 09:43:56;;;;;;;23.53;17.37;;;3.00;99.90;;;;;;5092250;28;20217;-41
2021/01/03 09:46:27;;;;;;;25.08;19.15;;;3.10;99.90;;;;;;5092482;28;20583;-41
2021/01/03 09:48:54;;;;;;;27.73;19.55;;;3.10;99.90;;;;;;5092350;28;20210;-41
2021/01/03 09:51:34;;;;;;;28.52;20.60;;;3.10;99.90;;;;;;5092155;28;20308;-40
2021/01/03 09:54:10;;;;;;;25.73;19.52;;;3.20;99.90;;;;;;5092070;28;20711;-42
2021/01/03 09:56:39;;;;;;;30.75;19.98;;;3.20;99.90;;;;;;5092252;28;20301;-39
2021/01/03 09:59:12;;;;;;;25.35;17.13;;;3.20;99.90;;;;;;5091946;28;20242;-39
2021/01/03 10:01:40;;;;;;;23.58;17.13;;;3.20;99.90;;;;;;5092051;28;20234;-40
2021/01/03 10:04:19;;;;;;;28.73;18.08;;;3.20;99.90;;;;;;5092028;28;20238;-39
2021/01/03 10:06:48;;;;;;;25.90;18.92;;;3.10;99.90;;;;;;5092332;28;20285;-40
2021/01/03 10:09:18;;;;;;;28.70;18.55;;;3.10;99.90;;;;;;5092258;28;20419;-40
2021/01/03 10:11:46;;;;;;;27.35;18.98;;;3.10;99.90;;;;;;5091908;28;20280;-40
2021/01/03 10:14:26;;;;;;;26.95;17.70;;;3.10;99.90;;;;;;5092027;28;20238;-41
2021/01/03 10:16:53;;;;;;;28.23;19.60;;;3.00;99.90;;;;;;5091844;28;20634;-40
2021/01/03 10:19:23;;;;;;;27.35;18.17;;;3.00;99.90;;;;;;5092036;28;20233;-41
2021/01/03 10:21:50;;;;;;;25.77;19.73;;;3.10;99.90;;;;;;5091438;28;20322;-38
2021/01/03 10:24:23;;;;;;;26.15;18.25;;;3.10;99.90;;;;;;5091806;28;20267;-39
2021/01/03 10:27:15;;;;;;;25.38;17.63;;;3.10;99.90;;;;;;5091826;28;20236;-39
2021/01/03 10:29:42;;;;;;;24.77;18.23;;;3.10;99.90;;;;;;5091600;28;20206;-39
2021/01/03 10:32:10;;;;;;;29.17;19.40;;;3.10;99.90;;;;;;5091919;28;20238;-39
2021/01/03 10:34:37;;;;;;;27.13;18.93;;;3.10;99.90;;;;;;5091866;28;20260;-39
2021/01/03 10:37:05;;;;;;;26.08;19.48;;;3.10;99.90;;;;;;5091638;28;20210;-39
2021/01/03 10:39:33;;;;;;;28.05;20.50;;;3.10;99.90;;;;;;5091654;28;20284;-41
2021/01/03 10:42:03;;;;;;;27.17;19.05;;;3.10;99.90;;;;;;5091517;28;20302;-40
2021/01/03 10:44:30;;;;;;;28.73;19.95;;;3.20;99.90;;;;;;5091872;28;20287;-41
2021/01/03 10:46:58;;;;;;;26.42;18.13;;;3.30;99.90;;;;;;5091844;28;20371;-41
2021/01/03 10:49:25;;;;;;;28.13;18.63;;;3.40;99.90;;;;;;5091666;28;20250;-40
2021/01/03 10:51:52;;;;;;;24.42;18.63;;;3.40;99.90;;;;;;5091293;28;20622;-41
2021/01/03 10:54:22;;;;;;;28.30;18.77;;;3.50;99.90;;;;;;5095277;28;20249;-41
2021/01/03 10:57:06;;;;;;;26.63;18.45;;;3.50;99.90;;;;;;5095288;28;20661;-40
2021/01/03 10:59:33;;;;;;;26.02;18.83;;;3.40;99.90;;;;;;5095320;28;20290;-40
2021/01/03 11:02:01;;;;;;;28.42;19.58;;;3.40;99.90;;;;;;5095116;28;20365;-41
2021/01/03 11:04:28;;;;;;;27.23;19.27;;;3.30;99.90;;;;;;5095296;28;20293;-41
2021/01/03 11:06:56;;;;;;;25.70;19.02;;;3.30;99.90;;;;;;5094953;28;20206;-41
2021/01/03 11:09:25;;;;;;;26.55;18.45;;;3.20;99.90;;;;;;5095137;28;20712;-41
2021/01/03 11:11:58;;;;;;;27.52;20.13;;;3.30;99.90;;;;;;5094869;28;20283;-41
2021/01/03 11:14:26;;;;;;;24.27;17.88;;;3.20;99.90;;;;;;5095139;28;20289;-42
2021/01/03 11:16:54;;;;;;;23.45;17.60;;;3.20;99.90;;;;;;5095030;28;20297;-41
2021/01/03 11:19:21;;;;;;;31.48;20.50;;;3.20;99.90;;;;;;5094881;28;20248;-42
2021/01/03 11:21:54;;;;;;;28.90;20.55;;;3.20;99.90;;;;;;5095057;28;20279;-40
2021/01/03 11:24:21;;;;;;;25.25;18.25;;;3.20;99.90;;;;;;5094983;28;20211;-41
2021/01/03 11:26:48;;;;;;;23.98;17.70;;;3.20;99.90;;;;;;5094856;28;20294;-41
2021/01/03 11:29:19;;;;;;;26.38;18.45;;;3.20;99.90;;;;;;5094779;28;20234;-40
2021/01/03 11:31:49;;;;;;;25.05;18.42;;;3.20;99.90;;;;;;5095710;28;20211;-40
2021/01/03 11:34:19;;;;;;;28.77;20.40;;;3.20;99.90;;;;;;5094671;28;20508;-41
2021/01/03 11:36:47;;;;;;;27.80;19.70;;;3.30;99.90;;;;;;5095239;28;20234;-41
2021/01/03 11:39:14;;;;;;;29.75;21.38;;;3.40;99.90;;;;;;5094548;28;20219;-42
2021/01/03 11:41:41;;;;;;;27.95;20.70;;;3.40;99.90;;;;;;5094278;28;20317;-40
2021/01/03 11:44:08;;;;;;;29.30;21.92;;;3.40;99.90;;;;;;5096534;28;20245;-40
2021/01/03 11:46:36;;;;;;;29.17;21.08;;;3.60;99.90;;;;;;5094202;28;20202;-40
2021/01/03 11:49:05;;;;;;;33.30;21.58;;;3.70;99.90;;;;;;5094428;28;20211;-41
2021/01/03 11:51:32;;;;;;;33.65;23.15;;;3.70;99.90;;;;;;5093961;28;20242;-40
2021/01/03 11:53:59;;;;;;;30.10;21.10;;;3.70;99.90;;;;;;5094089;28;20210;-41
2021/01/03 11:56:27;;;;;;;29.67;20.38;;;3.70;99.90;;;;;;5093918;28;20229;-41
2021/01/03 11:58:54;;;;;;;47.60;28.67;;;3.70;99.90;;;;;;5094353;28;20206;-40
2021/01/03 12:01:24;;;;;;;35.97;21.73;;;3.70;99.90;;;;;;5093807;28;20229;-43
2021/01/03 12:03:51;;;;;;;28.08;20.00;;;3.80;99.90;;;;;;5092427;28;20264;-41
2021/01/03 12:06:21;;;;;;;29.67;20.08;;;3.80;99.90;;;;;;5093930;28;20245;-42
2021/01/03 12:08:49;;;;;;;31.33;21.60;;;3.90;99.90;;;;;;5093755;28;20234;-43
2021/01/03 12:11:16;;;;;;;25.98;18.63;;;3.90;99.90;;;;;;5093487;28;20325;-43
2021/01/03 12:13:47;;;;;;;33.85;23.08;;;3.90;99.90;;;;;;5093406;28;20246;-41
2021/01/03 12:16:18;;;;;;;33.58;23.25;;;4.00;99.90;;;;;;5093599;28;20636;-41
2021/01/03 12:18:45;;;;;;;43.20;26.27;;;4.00;99.90;;;;;;5093476;28;20305;-41
2021/01/03 12:21:20;;;;;;;31.08;20.88;;;4.00;99.90;;;;;;5093120;28;20317;-41
2021/01/03 12:23:47;;;;;;;28.80;20.52;;;4.00;99.90;;;;;;5093386;28;20234;-41
2021/01/03 12:26:14;;;;;;;31.50;21.05;;;4.00;99.90;;;;;;5093245;28;20203;-41
2021/01/03 12:28:41;;;;;;;27.67;18.40;;;4.10;99.90;;;;;;5093343;28;20252;-42
2021/01/03 12:31:08;;;;;;;31.40;19.73;;;4.00;99.90;;;;;;5093522;28;20327;-41
2021/01/03 12:33:35;;;;;;;39.42;22.65;;;4.00;99.90;;;;;;5093416;28;20245;-42
2021/01/03 12:36:02;;;;;;;33.88;22.08;;;4.00;99.90;;;;;;5093285;28;20206;-41
2021/01/03 12:38:30;;;;;;;27.25;18.73;;;4.00;99.90;;;;;;5093082;28;20293;-42
2021/01/03 12:40:57;;;;;;;34.30;22.30;;;4.00;99.90;;;;;;5093353;28;20335;-42
2021/01/03 12:43:25;;;;;;;43.83;24.25;;;4.00;99.90;;;;;;5092967;28;20298;-42
2021/01/03 12:45:52;;;;;;;41.13;23.42;;;4.00;99.90;;;;;;5092983;28;20238;-42
2021/01/03 12:48:19;;;;;;;36.92;22.20;;;4.10;99.90;;;;;;5092961;28;20745;-42
2021/01/03 12:50:47;;;;;;;30.70;20.52;;;4.20;99.90;;;;;;5093086;28;20619;-42
2021/01/03 12:53:14;;;;;;;38.55;24.38;;;4.10;99.90;;;;;;5093023;28;20422;-42
2021/01/03 12:55:42;;;;;;;34.38;22.60;;;4.10;99.90;;;;;;5092906;28;20643;-41
2021/01/03 12:58:09;;;;;;;32.03;21.98;;;4.20;99.90;;;;;;5093219;28;20611;-42